Time;durP1;ratioP1;P1;durP2;ratioP2;P2;SDS_P1;SDS_P2;PMS_P1;PMS_P2;Temp;Humidity;BMP_temperature;BMP_pressure;BME280_temperature;BME280_humidity;BME280_pressure;Samples;Min_cycle;Max_cycle;Signal;HPM_P1;HPM_P2
2023/01/03 00:00:12;;;;;;;2.60;1.47;;;;;5.80;95024.00;;;;7400497;19;20137;-75
2023/01/03 00:02:40;;;;;;;1.60;1.40;;;;;5.80;95024.00;;;;7399793;19;20291;-75
2023/01/03 00:05:24;;;;;;;2.87;1.33;;;;;5.90;95024.00;;;;7401164;19;20124;-75
2023/01/03 00:07:59;;;;;;;6.17;1.63;;;;;5.80;95031.00;;;;7401850;19;20137;-73
2023/01/03 00:10:33;;;;;;;3.00;1.03;;;;;5.70;95029.00;;;;7401096;19;20180;-73
2023/01/03 00:13:00;;;;;;;1.17;1.07;;;;;5.80;95028.00;;;;7403090;19;20151;-73
2023/01/03 00:15:33;;;;;;;1.63;1.20;;;;;6.00;95040.00;;;;7400737;19;20117;-74
2023/01/03 00:18:06;;;;;;;1.93;1.10;;;;;5.80;95045.00;;;;7402959;19;20121;-74
2023/01/03 00:20:34;;;;;;;1.73;1.17;;;;;5.70;95046.00;;;;7400709;19;20131;-74
2023/01/03 00:23:01;;;;;;;2.50;0.87;;;;;5.70;95038.00;;;;7402380;19;20579;-74
2023/01/03 00:25:35;;;;;;;2.27;1.40;;;;;5.80;95034.00;;;;7401822;19;20599;-75
2023/01/03 00:28:03;;;;;;;3.23;1.40;;;;;5.80;95040.00;;;;7401469;19;20643;-75
2023/01/03 00:30:30;;;;;;;3.87;1.10;;;;;5.80;95050.00;;;;7400878;19;20149;-75
2023/01/03 00:33:04;;;;;;;1.90;1.17;;;;;5.80;95045.00;;;;7401325;19;20133;-75
2023/01/03 00:35:31;;;;;;;1.03;0.93;;;;;5.90;95034.00;;;;7401184;19;20133;-75
2023/01/03 00:37:59;;;;;;;2.50;1.23;;;;;5.80;95033.00;;;;7400636;19;20140;-75
2023/01/03 00:40:33;;;;;;;3.07;1.20;;;;;5.80;95040.00;;;;7402330;19;20613;-75
2023/01/03 00:45:55;;;;;;;1.13;0.90;;;;;5.90;95035.00;;;;7402266;19;20137;-75
2023/01/03 00:48:30;;;;;;;1.70;1.00;;;;;6.00;95029.00;;;;7400326;19;20129;-75
2023/01/03 00:51:21;;;;;;;3.87;1.10;;;;;5.90;95026.00;;;;7401348;19;20132;-75
2023/01/03 00:53:51;;;;;;;1.70;1.20;;;;;5.80;95023.00;;;;7401339;19;20140;-75
2023/01/03 00:56:30;;;;;;;1.23;0.80;;;;;5.90;95024.00;;;;7400112;19;20216;-75
2023/01/03 00:58:57;;;;;;;1.40;0.90;;;;;5.70;95037.00;;;;7400653;19;20167;-75
2023/01/03 01:01:38;;;;;;;2.47;1.23;;;;;5.70;95040.00;;;;7399299;19;20156;-75
2023/01/03 01:04:25;;;;;;;1.40;0.90;;;;;5.70;95033.00;;;;7399706;19;20128;-75
2023/01/03 01:07:05;;;;;;;1.73;0.77;;;;;5.70;95044.00;;;;7399728;19;20172;-75
2023/01/03 01:09:40;;;;;;;1.40;1.10;;;;;5.70;95034.00;;;;7398401;19;20132;-75
2023/01/03 01:12:07;;;;;;;2.33;1.00;;;;;5.70;95034.00;;;;7394910;19;20124;-75
2023/01/03 01:14:35;;;;;;;1.53;1.00;;;;;5.70;95032.00;;;;7392638;19;20153;-75
2023/01/03 01:17:10;;;;;;;1.93;1.10;;;;;5.60;95042.00;;;;7399373;19;20162;-75
2023/01/03 01:19:46;;;;;;;1.80;0.80;;;;;5.70;95046.00;;;;7399215;19;20144;-75
2023/01/03 01:22:21;;;;;;;1.73;1.10;;;;;5.70;95048.00;;;;7398651;19;20614;-75
2023/01/03 01:24:48;;;;;;;2.03;1.17;;;;;5.60;95054.00;;;;7400518;19;20137;-75
2023/01/03 01:27:22;;;;;;;1.07;0.80;;;;;5.60;95048.00;;;;7398599;19;20145;-75
2023/01/03 01:30:02;;;;;;;2.00;1.00;;;;;5.60;95054.00;;;;7398398;19;20121;-75
2023/01/03 01:32:30;;;;;;;1.83;1.20;;;;;5.70;95057.00;;;;7397999;19;20141;-75
2023/01/03 01:34:57;;;;;;;0.93;0.87;;;;;5.60;95065.00;;;;7400238;19;20141;-75
2023/01/03 01:37:31;;;;;;;1.70;1.10;;;;;5.60;95064.00;;;;7399199;19;20134;-75
2023/01/03 01:40:03;;;;;;;1.83;1.00;;;;;5.70;95070.00;;;;7399008;19;20149;-75
2023/01/03 01:45:22;;;;;;;0.80;0.80;;;;;5.70;95064.00;;;;7398672;19;20663;-75
2023/01/03 01:48:00;;;;;;;2.33;1.03;;;;;5.60;95058.00;;;;7399692;19;20119;-75
2023/01/03 01:50:45;;;;;;;1.27;1.03;;;;;5.70;95044.00;;;;7398086;19;20153;-75
2023/01/03 01:53:24;;;;;;;3.60;1.07;;;;;5.60;95050.00;;;;7398481;19;20677;-75
2023/01/03 01:56:24;;;;;;;4.93;1.03;;;;;5.60;95054.00;;;;7397501;19;20172;-76
2023/01/03 01:58:55;;;;;;;2.53;1.13;;;;;5.60;95052.00;;;;7397304;19;20124;-75
2023/01/03 02:01:45;;;;;;;1.50;1.00;;;;;5.40;95060.00;;;;7396442;19;20124;-76
2023/01/03 02:04:23;;;;;;;1.67;0.93;;;;;5.40;95052.00;;;;7394785;19;20133;-76
2023/01/03 02:07:21;;;;;;;2.27;0.90;;;;;5.40;95057.00;;;;7394537;19;20140;-79
2023/01/03 02:09:57;;;;;;;1.87;1.20;;;;;5.50;95060.00;;;;7398343;19;20497;-78
2023/01/03 02:13:04;;;;;;;2.50;1.20;;;;;5.50;95054.00;;;;7399652;19;20125;-79
2023/01/03 02:16:11;;;;;;;2.33;1.30;;;;;5.40;95056.00;;;;7398644;19;20160;-78
2023/01/03 02:19:29;;;;;;;1.13;0.80;;;;;5.40;95053.00;;;;7398628;19;20140;-77
2023/01/03 02:22:18;;;;;;;1.10;1.00;;;;;5.40;95062.00;;;;7398235;19;20157;-76
2023/01/03 02:25:16;;;;;;;2.23;1.20;;;;;5.40;95064.00;;;;7399482;19;20202;-78
2023/01/03 02:27:55;;;;;;;1.87;1.27;;;;;5.30;95057.00;;;;7397607;19;20576;-76
2023/01/03 02:30:42;;;;;;;4.07;1.30;;;;;5.40;95066.00;;;;7396158;19;20547;-77
2023/01/03 02:33:47;;;;;;;1.30;1.00;;;;;5.40;95058.00;;;;7398893;19;20487;-78
2023/01/03 02:36:41;;;;;;;2.27;1.30;;;;;5.40;95050.00;;;;7398952;19;20132;-77
2023/01/03 02:39:37;;;;;;;1.43;1.33;;;;;5.50;95046.00;;;;7397227;19;20132;-76
2023/01/03 02:45:12;;;;;;;1.43;1.17;;;;;5.20;95051.00;;;;7399059;19;20155;-77
2023/01/03 02:47:56;;;;;;;4.53;1.43;;;;;5.20;95056.00;;;;7398680;19;20210;-76
2023/01/03 02:50:30;;;;;;;1.97;1.17;;;;;5.10;95056.00;;;;7396930;19;20718;-75
2023/01/03 02:53:12;;;;;;;2.33;1.40;;;;;5.10;95058.00;;;;7398927;19;20136;-77
2023/01/03 02:55:41;;;;;;;2.33;1.20;;;;;5.00;95065.00;;;;7397376;19;20158;-77
2023/01/03 02:58:22;;;;;;;1.80;1.47;;;;;5.00;95073.00;;;;7398991;19;20117;-76
2023/01/03 03:00:54;;;;;;;1.60;1.50;;;;;5.10;95067.00;;;;7398001;19;20149;-78
2023/01/03 03:03:37;;;;;;;2.63;1.47;;;;;5.10;95060.00;;;;7397181;19;20208;-77
2023/01/03 03:06:32;;;;;;;1.73;1.63;;;;;5.10;95060.00;;;;7398627;19;20164;-76
2023/01/03 03:09:06;;;;;;;1.90;1.70;;;;;5.20;95058.00;;;;7398206;19;20470;-77
2023/01/03 03:14:42;;;;;;;2.20;1.90;;;;;5.20;95058.00;;;;7396005;19;20172;-78
2023/01/03 03:17:19;;;;;;;2.57;2.03;;;;;5.20;95060.00;;;;7396282;19;20197;-76
2023/01/03 03:25:52;;;;;;;5.40;1.80;;;;;4.70;95055.00;;;;7404670;19;20132;-78
2023/01/03 03:28:34;;;;;;;5.13;2.10;;;;;4.60;95049.00;;;;7403611;19;20231;-77
2023/01/03 03:31:17;;;;;;;2.10;1.53;;;;;4.50;95058.00;;;;7405909;19;20121;-76
2023/01/03 03:33:54;;;;;;;2.13;1.50;;;;;4.50;95069.00;;;;7402736;19;20133;-78
2023/01/03 03:36:56;;;;;;;3.57;1.70;;;;;4.50;95074.00;;;;7403585;19;20133;-77
2023/01/03 03:46:01;;;;;;;3.33;1.73;;;;;4.30;95063.00;;;;7402665;19;20640;-77
2023/01/03 03:51:46;;;;;;;2.40;1.50;;;;;4.40;95076.00;;;;7405249;19;20505;-76
2023/01/03 03:54:23;;;;;;;1.90;1.63;;;;;4.40;95076.00;;;;7403513;19;20168;-77
2023/01/03 03:57:01;;;;;;;2.17;1.50;;;;;4.50;95076.00;;;;7403130;19;20142;-76
2023/01/03 03:59:36;;;;;;;3.47;1.60;;;;;4.40;95080.00;;;;7402430;19;20166;-78
2023/01/03 04:02:12;;;;;;;4.67;1.50;;;;;4.30;95066.00;;;;7401347;19;20592;-76
2023/01/03 04:04:58;;;;;;;3.77;1.80;;;;;4.20;95070.00;;;;7402492;19;20149;-75
2023/01/03 04:07:26;;;;;;;2.40;1.50;;;;;4.00;95066.00;;;;7402109;19;20152;-75
2023/01/03 04:10:00;;;;;;;4.57;1.70;;;;;4.00;95069.00;;;;7401765;19;20160;-76
2023/01/03 04:12:27;;;;;;;2.43;1.20;;;;;3.90;95069.00;;;;7404469;19;20192;-75
2023/01/03 04:14:54;;;;;;;3.07;1.47;;;;;3.90;95067.00;;;;7402630;19;20160;-76
2023/01/03 04:17:29;;;;;;;1.20;1.10;;;;;4.00;95069.00;;;;7402435;19;20156;-76
2023/01/03 04:19:56;;;;;;;1.57;1.47;;;;;4.00;95073.00;;;;7402910;19;20141;-77
2023/01/03 04:22:24;;;;;;;2.97;1.37;;;;;4.00;95079.00;;;;7403546;19;20181;-78
2023/01/03 04:24:57;;;;;;;2.17;1.50;;;;;3.90;95078.00;;;;7401518;19;20156;-76
2023/01/03 04:27:25;;;;;;;2.57;2.17;;;;;4.00;95068.00;;;;7402674;19;20607;-75
2023/01/03 04:29:52;;;;;;;4.63;2.10;;;;;3.90;95078.00;;;;7401228;19;20144;-77
2023/01/03 04:32:26;;;;;;;1.90;1.70;;;;;3.80;95075.00;;;;7404161;19;20148;-77
2023/01/03 04:34:54;;;;;;;1.70;1.60;;;;;3.70;95082.00;;;;7402246;19;20156;-77
2023/01/03 04:37:22;;;;;;;1.53;1.43;;;;;3.70;95082.00;;;;7404570;19;20918;-76
2023/01/03 04:39:56;;;;;;;2.00;1.60;;;;;3.70;95083.00;;;;7403026;19;20141;-75
2023/01/03 04:45:19;;;;;;;1.83;1.37;;;;;3.70;95080.00;;;;7403060;19;20143;-76
2023/01/03 04:47:46;;;;;;;2.73;1.70;;;;;3.70;95090.00;;;;7401923;19;20176;-75
2023/01/03 04:50:14;;;;;;;2.00;1.50;;;;;3.80;95077.00;;;;7401137;19;20161;-79
2023/01/03 04:52:51;;;;;;;2.57;1.70;;;;;3.90;95087.00;;;;7402630;19;20141;-76
2023/01/03 04:55:19;;;;;;;1.77;1.30;;;;;3.90;95082.00;;;;7400532;19;20150;-76
2023/01/03 04:57:47;;;;;;;5.37;1.67;;;;;4.00;95067.00;;;;7400461;19;20587;-77
2023/01/03 05:00:21;;;;;;;4.23;1.90;;;;;4.10;95078.00;;;;7400533;19;20159;-76
2023/01/03 05:02:55;;;;;;;3.27;1.67;;;;;4.10;95074.00;;;;7399743;19;20181;-75
2023/01/03 05:05:36;;;;;;;2.53;1.53;;;;;4.20;95079.00;;;;7401227;19;20153;-75
2023/01/03 05:08:06;;;;;;;2.70;1.50;;;;;4.20;95076.00;;;;7401490;19;20198;-75
2023/01/03 05:10:40;;;;;;;2.93;1.50;;;;;4.30;95069.00;;;;7401312;19;20133;-76
2023/01/03 05:13:08;;;;;;;3.53;1.73;;;;;4.30;95070.00;;;;7391986;19;20148;-76
2023/01/03 05:15:39;;;;;;;2.47;1.50;;;;;4.50;95084.00;;;;7400565;19;20488;-75
2023/01/03 05:18:13;;;;;;;4.33;1.63;;;;;4.30;95083.00;;;;7400008;19;20940;-74
2023/01/03 05:26:20;;;;;;;1.60;1.20;;;;;4.00;95079.00;;;;7400132;19;20458;-74
2023/01/03 05:28:55;;;;;;;1.27;1.17;;;;;3.90;95087.00;;;;7401166;19;20200;-75
2023/01/03 05:31:23;;;;;;;1.47;1.30;;;;;3.90;95092.00;;;;7398719;19;20149;-74
2023/01/03 05:33:50;;;;;;;3.60;1.50;;;;;4.00;95082.00;;;;7399662;19;20201;-73
2023/01/03 05:36:24;;;;;;;3.17;1.50;;;;;4.00;95092.00;;;;7400011;19;20212;-77
2023/01/03 05:38:52;;;;;;;3.50;1.00;;;;;4.00;95098.00;;;;7401124;19;20144;-76
2023/01/03 05:44:12;;;;;;;1.67;1.20;;;;;4.10;95084.00;;;;7398228;19;20157;-75
2023/01/03 05:46:43;;;;;;;3.83;1.00;;;;;4.20;95100.00;;;;7395782;19;20145;-74
2023/01/03 05:49:11;;;;;;;3.63;1.40;;;;;4.20;95101.00;;;;7398782;19;20140;-75
2023/01/03 05:51:45;;;;;;;3.57;1.20;;;;;4.20;95095.00;;;;7394058;19;20133;-75
2023/01/03 05:54:17;;;;;;;1.67;1.27;;;;;4.10;95093.00;;;;7396341;19;20145;-76
2023/01/03 05:56:45;;;;;;;3.37;1.30;;;;;4.00;95106.00;;;;7395677;19;20228;-75
2023/01/03 05:59:20;;;;;;;1.30;1.20;;;;;4.00;95100.00;;;;7394677;19;20155;-75
2023/01/03 06:01:47;;;;;;;1.53;1.10;;;;;4.00;95096.00;;;;7395804;19;20153;-75
2023/01/03 06:04:15;;;;;;;1.60;1.20;;;;;4.10;95100.00;;;;7393098;19;20169;-77
2023/01/03 06:06:51;;;;;;;2.43;1.30;;;;;4.20;95108.00;;;;7395879;19;20148;-76
2023/01/03 06:09:18;;;;;;;1.43;1.30;;;;;4.20;95097.00;;;;7396014;19;20152;-74
2023/01/03 06:11:52;;;;;;;3.97;1.60;;;;;4.20;95103.00;;;;7392994;19;20148;-74
2023/01/03 06:14:27;;;;;;;2.17;1.20;;;;;4.00;95109.00;;;;7397266;19;20169;-74
2023/01/03 06:19:49;;;;;;;3.20;1.20;;;;;3.80;95099.00;;;;7393028;19;20853;-74
2023/01/03 06:22:16;;;;;;;2.40;1.10;;;;;3.70;95109.00;;;;7394540;19;20133;-76
2023/01/03 06:24:44;;;;;;;0.93;0.80;;;;;3.60;95106.00;;;;7395777;19;20462;-74
2023/01/03 06:27:18;;;;;;;2.10;1.03;;;;;3.40;95124.00;;;;7394280;19;20188;-76
2023/01/03 06:29:47;;;;;;;2.20;1.10;;;;;3.30;95124.00;;;;7389304;19;20175;-76
2023/01/03 06:32:14;;;;;;;4.50;1.30;;;;;3.40;95122.00;;;;7395202;19;20634;-74
2023/01/03 06:34:49;;;;;;;2.47;1.13;;;;;3.50;95122.00;;;;7394502;19;20185;-75
2023/01/03 06:37:17;;;;;;;1.20;1.00;;;;;3.50;95127.00;;;;7392896;19;20161;-75
2023/01/03 06:39:44;;;;;;;2.67;1.27;;;;;3.50;95132.00;;;;7391717;19;20141;-75
2023/01/03 06:42:38;;;;;;;5.63;1.63;;;;;3.40;95127.00;;;;7393903;19;20609;-75
2023/01/03 06:53:43;;;;;;;0.80;0.80;;;;;3.10;95131.00;;;;7398306;19;21678;-75
2023/01/03 06:56:18;;;;;;;1.10;0.97;;;;;2.90;95133.00;;;;7402636;19;20133;-75
2023/01/03 06:58:53;;;;;;;1.50;1.03;;;;;2.80;95132.00;;;;7403402;19;20140;-75
2023/01/03 07:01:21;;;;;;;2.53;1.00;;;;;2.70;95129.00;;;;7400121;19;20152;-77
2023/01/03 07:03:49;;;;;;;1.23;1.03;;;;;2.60;95126.00;;;;7397064;19;20201;-75
2023/01/03 07:06:31;;;;;;;1.47;1.20;;;;;2.60;95127.00;;;;7399165;19;20502;-76
2023/01/03 07:08:59;;;;;;;5.37;1.20;;;;;2.60;95134.00;;;;7401071;19;20168;-75
2023/01/03 07:11:33;;;;;;;2.77;1.10;;;;;2.60;95131.00;;;;7400667;19;20133;-75
2023/01/03 07:14:02;;;;;;;2.13;1.13;;;;;2.50;95133.00;;;;7403220;19;20151;-75
2023/01/03 07:16:35;;;;;;;2.27;1.50;;;;;2.40;95131.00;;;;7403844;19;20165;-74
2023/01/03 07:19:17;;;;;;;1.17;1.03;;;;;2.30;95146.00;;;;7400502;19;20140;-75
2023/01/03 07:21:46;;;;;;;1.20;0.97;;;;;2.30;95130.00;;;;7401995;19;20144;-75
2023/01/03 07:24:21;;;;;;;1.33;1.10;;;;;2.30;95144.00;;;;7401840;19;20137;-77
2023/01/03 07:26:54;;;;;;;2.67;1.20;;;;;2.50;95139.00;;;;7401080;19;20133;-75
2023/01/03 07:29:22;;;;;;;1.93;1.20;;;;;2.60;95154.00;;;;7401729;19;20172;-73
2023/01/03 07:31:57;;;;;;;2.40;1.13;;;;;2.60;95153.00;;;;7399940;19;20141;-79
2023/01/03 07:34:25;;;;;;;4.13;1.17;;;;;2.70;95150.00;;;;7402456;19;20129;-74
2023/01/03 07:36:53;;;;;;;2.30;1.20;;;;;2.80;95157.00;;;;7403040;19;20173;-75
2023/01/03 07:39:28;;;;;;;1.83;1.10;;;;;2.90;95156.00;;;;7401839;19;20148;-75
2023/01/03 07:44:47;;;;;;;2.33;1.17;;;;;3.00;95156.00;;;;7401852;19;20137;-75
2023/01/03 07:47:15;;;;;;;3.50;1.30;;;;;3.10;95154.00;;;;7403258;19;20145;-76
2023/01/03 07:49:43;;;;;;;2.97;1.53;;;;;3.20;95155.00;;;;7402482;19;20638;-74
2023/01/03 07:52:17;;;;;;;1.23;1.10;;;;;3.20;95149.00;;;;7397570;19;20591;-74
2023/01/03 07:54:45;;;;;;;3.70;1.33;;;;;3.40;95157.00;;;;7400768;19;20631;-78
2023/01/03 07:57:14;;;;;;;7.53;1.50;;;;;3.50;95165.00;;;;7400332;19;20161;-75
2023/01/03 07:59:49;;;;;;;3.50;1.57;;;;;3.60;95162.00;;;;7401980;19;20144;-74
2023/01/03 08:02:29;;;;;;;6.50;1.50;;;;;3.80;95166.00;;;;7397509;19;20174;-74
2023/01/03 08:05:04;;;;;;;4.03;1.50;;;;;3.90;95170.00;;;;7398551;19;20591;-74
2023/01/03 08:07:32;;;;;;;1.53;1.30;;;;;4.00;95167.00;;;;7402870;19;20600;-77
2023/01/03 08:15:44;;;;;;;2.97;1.30;;;;;4.00;95173.00;;;;7402206;19;20594;-74
2023/01/03 08:18:24;;;;;;;3.73;1.43;;;;;3.90;95163.00;;;;7399035;19;20491;-76
2023/01/03 08:20:54;;;;;;;1.03;0.93;;;;;4.00;95164.00;;;;7402572;19;20129;-76
2023/01/03 08:23:29;;;;;;;9.57;1.90;;;;;4.10;95167.00;;;;7400055;19;20120;-76
2023/01/03 08:26:05;;;;;;;1.97;1.40;;;;;4.30;95168.00;;;;7401306;19;20469;-74
2023/01/03 08:28:41;;;;;;;1.77;1.00;;;;;4.30;95169.00;;;;7401310;19;20137;-76
2023/01/03 08:31:24;;;;;;;2.03;1.37;;;;;4.40;95176.00;;;;7400921;19;20141;-74
2023/01/03 08:34:02;;;;;;;8.63;1.60;;;;;4.40;95178.00;;;;7399671;19;20167;-74
2023/01/03 08:36:45;;;;;;;1.53;1.00;;;;;4.30;95177.00;;;;7400219;19;20139;-76
2023/01/03 08:39:25;;;;;;;1.23;1.10;;;;;4.50;95180.00;;;;7400635;19;20137;-76
2023/01/03 08:42:04;;;;;;;2.93;1.07;;;;;4.60;95193.00;;;;7399745;19;20139;-75
2023/01/03 08:44:39;;;;;;;3.27;1.00;;;;;4.70;95192.00;;;;7400580;19;20117;-73
2023/01/03 08:47:08;;;;;;;1.43;0.90;;;;;4.80;95201.00;;;;7399068;19;20125;-74
2023/01/03 08:49:38;;;;;;;2.10;0.77;;;;;4.80;95202.00;;;;7400410;19;20141;-73
2023/01/03 08:52:12;;;;;;;2.27;1.00;;;;;5.00;95201.00;;;;7394095;19;20148;-73
2023/01/03 08:54:39;;;;;;;1.73;0.90;;;;;5.00;95201.00;;;;7395501;19;20143;-76
2023/01/03 08:57:07;;;;;;;2.20;0.93;;;;;5.00;95195.00;;;;7383383;19;20140;-75
2023/01/03 08:59:41;;;;;;;2.40;1.27;;;;;5.10;95212.00;;;;7391778;19;20133;-74
2023/01/03 09:02:08;;;;;;;5.20;1.20;;;;;5.20;95201.00;;;;7390601;19;20631;-74
2023/01/03 09:04:42;;;;;;;4.10;1.03;;;;;5.20;95201.00;;;;7394233;19;20177;-75
2023/01/03 09:07:21;;;;;;;1.87;1.10;;;;;5.10;95212.00;;;;7395846;19;20629;-75
2023/01/03 09:09:50;;;;;;;2.37;1.67;;;;;5.20;95210.00;;;;7395680;19;20140;-76
2023/01/03 09:12:18;;;;;;;1.87;1.10;;;;;5.30;95211.00;;;;7393555;19;20152;-75
2023/01/03 09:14:52;;;;;;;1.77;0.93;;;;;5.30;95210.00;;;;7395486;19;20141;-75
2023/01/03 09:17:20;;;;;;;1.10;1.00;;;;;5.40;95208.00;;;;7394174;19;20149;-74
2023/01/03 09:19:49;;;;;;;4.20;1.20;;;;;5.70;95210.00;;;;7398299;19;20149;-74
2023/01/03 09:22:23;;;;;;;1.90;0.90;;;;;5.50;95223.00;;;;7393982;19;20632;-76
2023/01/03 09:24:50;;;;;;;1.53;0.80;;;;;5.50;95222.00;;;;7397504;19;20121;-76
2023/01/03 09:27:18;;;;;;;1.47;0.90;;;;;5.60;95222.00;;;;7394850;19;20148;-76
2023/01/03 09:29:52;;;;;;;1.23;0.90;;;;;5.80;95226.00;;;;7402370;19;20157;-74
2023/01/03 09:32:20;;;;;;;2.73;1.00;;;;;5.50;95227.00;;;;7394802;19;20245;-73
2023/01/03 09:34:47;;;;;;;3.13;1.17;;;;;5.40;95229.00;;;;7393960;19;20642;-74
2023/01/03 09:37:21;;;;;;;3.90;0.97;;;;;5.50;95234.00;;;;7387100;19;20946;-76
2023/01/03 09:39:49;;;;;;;3.27;0.80;;;;;5.50;95228.00;;;;7387721;19;20133;-75
2023/01/03 09:45:17;;;;;;;1.80;0.90;;;;;5.40;95242.00;;;;7392594;19;20145;-76
2023/01/03 09:47:45;;;;;;;1.03;0.80;;;;;5.40;95233.00;;;;7391184;19;20137;-74
2023/01/03 09:50:22;;;;;;;5.17;1.07;;;;;5.40;95239.00;;;;7391259;19;20142;-75
2023/01/03 10:05:38;;;;;;;1.90;0.80;;;;;5.70;95236.00;;;;7390824;19;20588;-76
2023/01/03 10:08:27;;;;;;;2.77;0.90;;;;;5.80;95232.00;;;;7388060;19;20164;-75
2023/01/03 10:11:25;;;;;;;0.90;0.60;;;;;6.10;95227.00;;;;7377560;19;20502;-76
2023/01/03 10:13:52;;;;;;;1.33;0.90;;;;;6.30;95219.00;;;;7390297;19;20171;-75
2023/01/03 10:16:36;;;;;;;1.80;0.53;;;;;7.20;95229.00;;;;7387974;19;20136;-76
2023/01/03 10:19:19;;;;;;;0.90;0.60;;;;;7.70;95218.00;;;;7390829;19;20184;-76
2023/01/03 10:22:03;;;;;;;2.30;0.63;;;;;8.70;95225.00;;;;7388905;19;20146;-74
2023/01/03 10:24:55;;;;;;;2.07;0.60;;;;;9.60;95212.00;;;;7392295;19;20133;-74
2023/01/03 10:27:33;;;;;;;1.70;0.70;;;;;10.10;95204.00;;;;7386557;19;20153;-74
2023/01/03 10:30:03;;;;;;;0.90;0.60;;;;;11.40;95212.00;;;;7389223;19;20156;-74
2023/01/03 10:33:06;;;;;;;2.13;0.70;;;;;11.80;95204.00;;;;7388540;19;20133;-74
2023/01/03 10:35:35;;;;;;;2.00;0.75;;;;;11.70;95204.00;;;;7384228;19;20181;-73
2023/01/03 10:38:09;;;;;;;1.02;0.70;;;;;11.50;95204.00;;;;7387165;19;20185;-74
2023/01/03 10:40:47;;;;;;;0.98;0.57;;;;;12.30;95205.00;;;;7388078;19;20165;-73
2023/01/03 10:43:37;;;;;;;28.60;2.22;;;;;11.80;95191.00;;;;7391439;19;20706;-73
2023/01/03 10:46:12;;;;;;;1.10;0.60;;;;;12.70;95190.00;;;;7387934;19;20156;-75
2023/01/03 10:48:51;;;;;;;3.80;0.68;;;;;12.70;95182.00;;;;7389617;19;20125;-73
2023/01/03 10:51:49;;;;;;;2.78;0.73;;;;;13.10;95182.00;;;;7389172;19;20155;-73
2023/01/03 10:54:35;;;;;;;0.90;0.40;;;;;13.70;95172.00;;;;7387949;19;20160;-74
2023/01/03 10:57:05;;;;;;;3.88;0.70;;;;;13.80;95179.00;;;;7390357;19;20622;-75
2023/01/03 10:59:48;;;;;;;0.60;0.47;;;;;13.40;95173.00;;;;7386769;19;20140;-74
2023/01/03 11:02:17;;;;;;;2.65;0.80;;;;;13.90;95183.00;;;;7390323;19;20604;-76
2023/01/03 11:05:15;;;;;;;0.90;0.70;;;;;14.50;95169.00;;;;7386106;19;20153;-75
2023/01/03 11:07:58;;;;;;;2.03;0.70;;;;;14.10;95166.00;;;;7384339;19;20133;-74
2023/01/03 11:10:48;;;;;;;1.27;0.90;;;;;13.90;95167.00;;;;7387539;19;20177;-75
2023/01/03 11:13:32;;;;;;;2.47;0.60;;;;;14.60;95172.00;;;;7386262;19;20155;-76
2023/01/03 11:16:16;;;;;;;2.50;0.70;;;;;13.80;95178.00;;;;7390127;19;20599;-74
2023/01/03 11:19:01;;;;;;;1.65;0.57;;;;;13.00;95165.00;;;;7383117;19;20588;-74
2023/01/03 11:21:53;;;;;;;1.48;0.60;;;;;13.40;95179.00;;;;7384663;19;20132;-73
2023/01/03 11:24:49;;;;;;;1.30;0.70;;;;;13.30;95167.00;;;;7386346;19;20591;-75
2023/01/03 11:27:45;;;;;;;1.45;0.50;;;;;13.90;95171.00;;;;7387225;19;20147;-72
2023/01/03 11:30:14;;;;;;;1.75;0.60;;;;;13.70;95166.00;;;;7387461;19;20251;-74
2023/01/03 11:33:04;;;;;;;1.38;0.60;;;;;13.60;95169.00;;;;7387885;19;20156;-74
2023/01/03 11:35:42;;;;;;;2.58;0.70;;;;;13.90;95171.00;;;;7382607;19;20128;-74
2023/01/03 11:38:40;;;;;;;2.75;0.85;;;;;14.90;95168.00;;;;7387843;19;20752;-75
2023/01/03 11:41:22;;;;;;;0.85;0.50;;;;;13.10;95171.00;;;;7393070;19;20129;-75
2023/01/03 11:44:21;;;;;;;1.40;0.60;;;;;13.80;95162.00;;;;7397073;19;20137;-74
2023/01/03 11:47:22;;;;;;;0.65;0.32;;;;;14.80;95142.00;;;;7393135;19;20129;-75
2023/01/03 11:50:25;;;;;;;3.75;0.60;;;;;14.30;95158.00;;;;7396311;19;20233;-72
2023/01/03 11:52:59;;;;;;;0.40;0.40;;;;;13.80;95158.00;;;;7391254;19;20156;-74
2023/01/03 11:55:41;;;;;;;0.47;0.38;;;;;15.00;95148.00;;;;7396477;19;20145;-74
2023/01/03 11:58:23;;;;;;;1.50;0.60;;;;;13.70;95164.00;;;;7391980;19;20152;-72
2023/01/03 12:01:04;;;;;;;0.77;0.50;;;;;13.70;95151.00;;;;7396041;19;20178;-73
2023/01/03 12:03:56;;;;;;;1.98;0.50;;;;;13.00;95147.00;;;;7392596;19;20520;-73
2023/01/03 12:06:54;;;;;;;1.50;0.70;;;;;13.50;95155.00;;;;7391969;19;20129;-75
2023/01/03 12:10:00;;;;;;;1.58;0.70;;;;;13.00;95175.00;;;;7393528;19;20729;-74
2023/01/03 12:13:19;;;;;;;1.73;0.50;;;;;11.50;95181.00;;;;7395751;19;20132;-74
2023/01/03 12:16:13;;;;;;;1.85;0.60;;;;;9.10;95184.00;;;;7391958;19;20133;-73
2023/01/03 12:19:19;;;;;;;1.08;0.60;;;;;9.70;95182.00;;;;7393427;19;20156;-74
2023/01/03 12:22:02;;;;;;;2.00;0.60;;;;;10.90;95171.00;;;;7393354;19;20148;-74
2023/01/03 12:24:53;;;;;;;0.88;0.50;;;;;10.50;95169.00;;;;7393482;19;20153;-73
2023/01/03 12:27:45;;;;;;;1.58;0.40;;;;;12.10;95159.00;;;;7394376;19;20145;-73
2023/01/03 12:31:00;;;;;;;2.83;0.50;;;;;12.40;95152.00;;;;7392293;19;20154;-77
2023/01/03 12:33:59;;;;;;;1.00;0.32;;;;;12.50;95153.00;;;;7393431;19;20149;-75
2023/01/03 12:37:11;;;;;;;2.85;0.50;;;;;14.20;95145.00;;;;7393936;19;20154;-74
2023/01/03 12:39:49;;;;;;;2.20;0.43;;;;;12.90;95136.00;;;;7393918;19;20463;-75
2023/01/03 12:42:32;;;;;;;0.60;0.45;;;;;14.10;95165.00;;;;7394641;19;20600;-74
2023/01/03 12:45:23;;;;;;;1.30;0.60;;;;;12.70;95151.00;;;;7394703;19;20132;-75
2023/01/03 12:48:19;;;;;;;2.50;0.45;;;;;13.50;95140.00;;;;7396599;19;20132;-75
2023/01/03 12:50:48;;;;;;;1.83;0.63;;;;;13.40;95157.00;;;;7392115;19;20133;-74
2023/01/03 12:53:41;;;;;;;0.75;0.45;;;;;13.20;95141.00;;;;7391756;19;20132;-76
2023/01/03 12:56:31;;;;;;;1.45;0.52;;;;;13.70;95143.00;;;;7393448;19;20144;-75
2023/01/03 12:59:20;;;;;;;4.22;0.60;;;;;14.40;95140.00;;;;7390369;19;20594;-73
2023/01/03 13:01:56;;;;;;;1.45;0.57;;;;;13.70;95140.00;;;;7393019;19;20656;-74
2023/01/03 13:04:40;;;;;;;0.50;0.40;;;;;14.40;95140.00;;;;7391086;19;20655;-74
2023/01/03 13:07:11;;;;;;;1.65;0.43;;;;;14.30;95148.00;;;;7395140;19;20144;-73
2023/01/03 13:09:54;;;;;;;1.65;0.50;;;;;13.70;95139.00;;;;7392108;19;20128;-74
2023/01/03 13:12:35;;;;;;;1.35;0.55;;;;;14.20;95134.00;;;;7391432;19;20602;-73
2023/01/03 13:15:27;;;;;;;0.65;0.50;;;;;12.70;95162.00;;;;7393044;19;20161;-73
2023/01/03 13:18:30;;;;;;;1.63;0.60;;;;;12.00;95136.00;;;;7391137;19;20197;-75
2023/01/03 13:21:42;;;;;;;1.27;0.52;;;;;11.70;95157.00;;;;7393479;19;20523;-74
2023/01/03 13:24:10;;;;;;;2.70;0.47;;;;;10.60;95159.00;;;;7390586;19;20133;-74
2023/01/03 13:27:27;;;;;;;0.77;0.40;;;;;12.10;95145.00;;;;7393731;19;20136;-75
2023/01/03 13:29:58;;;;;;;1.55;0.30;;;;;12.90;95138.00;;;;7396292;19;20212;-74
2023/01/03 13:32:51;;;;;;;0.35;0.30;;;;;14.70;95134.00;;;;7391605;19;20611;-75
2023/01/03 13:35:29;;;;;;;2.42;0.55;;;;;15.20;95136.00;;;;7398299;19;20133;-75
2023/01/03 13:38:29;;;;;;;0.93;0.52;;;;;14.80;95137.00;;;;7393207;19;20159;-73
2023/01/03 13:41:00;;;;;;;3.10;0.60;;;;;14.40;95129.00;;;;7394479;19;20125;-73
2023/01/03 13:43:49;;;;;;;1.55;0.40;;;;;14.30;95129.00;;;;7397805;19;20224;-74
2023/01/03 13:46:27;;;;;;;1.23;0.40;;;;;15.80;95122.00;;;;7398066;19;20133;-73
2023/01/03 13:49:04;;;;;;;1.63;0.57;;;;;13.80;95124.00;;;;7397849;19;20151;-74
2023/01/03 13:51:39;;;;;;;1.08;0.50;;;;;13.40;95142.00;;;;7400036;19;20592;-72
2023/01/03 13:54:18;;;;;;;1.38;0.60;;;;;12.00;95149.00;;;;7398803;19;20620;-75
2023/01/03 13:56:51;;;;;;;2.42;0.60;;;;;11.30;95152.00;;;;7397422;19;20141;-73
2023/01/03 13:59:34;;;;;;;0.93;0.70;;;;;9.60;95161.00;;;;7399571;19;20602;-73
2023/01/03 14:02:39;;;;;;;0.70;0.70;;;;;10.00;95162.00;;;;7394458;19;20144;-74
2023/01/03 14:06:08;;;;;;;1.45;0.70;;;;;9.00;95161.00;;;;7399261;19;20149;-76
2023/01/03 14:08:54;;;;;;;2.83;0.73;;;;;8.50;95166.00;;;;7397915;19;20137;-76
2023/01/03 14:11:44;;;;;;;3.90;0.50;;;;;9.10;95150.00;;;;7396763;19;20588;-75
2023/01/03 14:14:16;;;;;;;2.55;0.60;;;;;10.80;95151.00;;;;7387520;19;20132;-74
2023/01/03 14:16:53;;;;;;;0.73;0.50;;;;;12.00;95139.00;;;;7394201;19;20148;-75
2023/01/03 14:19:24;;;;;;;0.77;0.60;;;;;11.40;95145.00;;;;7384366;19;20144;-74
2023/01/03 14:22:22;;;;;;;0.93;0.55;;;;;11.90;95159.00;;;;7393114;19;20137;-73
2023/01/03 14:24:58;;;;;;;0.55;0.52;;;;;10.70;95166.00;;;;7390888;19;20149;-75
2023/01/03 14:27:39;;;;;;;3.25;0.55;;;;;9.90;95165.00;;;;7392862;19;20603;-74
2023/01/03 14:30:22;;;;;;;0.52;0.50;;;;;9.20;95164.00;;;;7391267;19;20766;-73
2023/01/03 14:32:58;;;;;;;1.83;0.75;;;;;8.20;95173.00;;;;7393057;19;20619;-78